createdAt,value
2023-02-13T00:02:24.951Z,103255.84
2023-02-13T00:04:51.297Z,103244.91
2023-02-13T00:07:17.622Z,103243.56
2023-02-13T00:09:43.950Z,103247.78
2023-02-13T00:12:10.260Z,103237.03
2023-02-13T00:14:37.061Z,103246.44
2023-02-13T00:17:03.380Z,103249.91
2023-02-13T00:19:29.715Z,103251.28
2023-02-13T00:21:56.051Z,103250.50
2023-02-13T00:24:22.377Z,103246.84
2023-02-13T00:26:48.704Z,103243.22
2023-02-13T00:29:15.037Z,103235.94
2023-02-13T00:31:41.562Z,103235.94
2023-02-13T00:34:07.959Z,103245.94
2023-02-13T00:36:34.795Z,103235.94
2023-02-13T00:39:01.140Z,103240.16
2023-02-13T00:41:27.484Z,103237.88
2023-02-13T00:43:53.823Z,103235.75
2023-02-13T00:46:20.582Z,103232.88
2023-02-13T00:48:46.971Z,103227.13
2023-02-13T00:51:13.308Z,103222.75
2023-02-13T00:53:39.654Z,103229.06
2023-02-13T00:56:06.268Z,103234.06
2023-02-13T00:58:32.660Z,103234.06
2023-02-13T01:00:59.459Z,103236.19
2023-02-13T01:03:26.230Z,103236.94
2023-02-13T01:05:52.571Z,103233.31
2023-02-13T01:08:19.208Z,103235.44
2023-02-13T01:10:46.949Z,103231.78
2023-02-13T01:13:13.705Z,103231.00
2023-02-13T01:15:40.063Z,103236.78
2023-02-13T01:18:06.439Z,103235.25
2023-02-13T01:20:33.203Z,103235.25
2023-02-13T01:22:59.578Z,103228.75
2023-02-13T01:25:25.966Z,103239.47
2023-02-13T01:27:52.308Z,103239.47
2023-02-13T01:30:18.725Z,103235.84
2023-02-13T01:32:45.331Z,103231.44
2023-02-13T01:35:13.290Z,103237.78
2023-02-13T01:37:39.645Z,103230.66
2023-02-13T01:40:06.643Z,103230.66
2023-02-13T01:42:33.450Z,103230.66
2023-02-13T01:45:00.439Z,103229.16
2023-02-13T01:47:37.887Z,103233.41
2023-02-13T01:50:11.387Z,103226.84
2023-02-13T01:52:38.537Z,103227.63
2023-02-13T01:55:04.927Z,103224.59
2023-02-13T01:57:31.531Z,103225.34
2023-02-13T02:00:00.059Z,103224.59
2023-02-13T02:02:27.716Z,103230.34
2023-02-13T02:04:54.190Z,103224.59
2023-02-13T02:07:21.566Z,103220.16
2023-02-13T02:09:48.957Z,103226.53
2023-02-13T02:12:54.557Z,103221.53
2023-02-13T02:15:21.273Z,103219.41
2023-02-13T02:17:47.856Z,103225.75
2023-02-13T02:20:29.795Z,103221.34
2023-02-13T02:23:16.638Z,103220.00
2023-02-13T02:26:01.021Z,103230.00
2023-02-13T02:28:46.442Z,103230.00
2023-02-13T02:31:31.595Z,103234.97
2023-02-13T02:34:06.060Z,103229.81
2023-02-13T02:36:52.692Z,103233.44
2023-02-13T02:39:23.740Z,103221.94
2023-02-13T02:42:04.529Z,103231.19
2023-02-13T02:44:40.058Z,103230.38
2023-02-13T02:47:29.173Z,103231.19
2023-02-13T02:49:58.997Z,103229.63
2023-02-13T02:52:31.044Z,103228.88
2023-02-13T02:55:07.129Z,103226.56
2023-02-13T02:58:00.488Z,103223.13
2023-02-13T03:00:45.639Z,103236.75
2023-02-13T03:03:31.985Z,103233.88
2023-02-13T03:06:10.510Z,103238.09
2023-02-13T03:08:59.803Z,103234.44
2023-02-13T03:11:46.619Z,103243.84
2023-02-13T03:14:13.590Z,103245.19
2023-02-13T03:16:58.513Z,103248.06
2023-02-13T03:19:49.738Z,103242.91
2023-02-13T03:22:27.999Z,103242.16
2023-02-13T03:25:04.526Z,103245.78
2023-02-13T03:28:01.857Z,103238.50
2023-02-13T03:30:28.185Z,103245.03
2023-02-13T03:32:54.452Z,103237.72
2023-02-13T03:36:08.696Z,103248.47
2023-02-13T03:38:41.070Z,103240.59
2023-02-13T03:41:20.139Z,103243.47
2023-02-13T03:43:52.676Z,103229.28
2023-02-13T03:46:19.074Z,103229.47
2023-02-13T03:49:04.225Z,103229.63
2023-02-13T03:51:35.011Z,103241.31
2023-02-13T03:54:01.994Z,103234.19
2023-02-13T03:56:47.177Z,103225.00
2023-02-13T03:59:23.076Z,103221.53
2023-02-13T04:01:51.644Z,103223.66
2023-02-13T04:04:24.215Z,103224.41
2023-02-13T04:06:56.225Z,103234.56
2023-02-13T04:09:22.937Z,103221.53
2023-02-13T04:12:02.298Z,103210.03
2023-02-13T04:14:30.192Z,103212.91
2023-02-13T04:16:57.813Z,103218.84
2023-02-13T04:19:24.945Z,103218.06
2023-02-13T04:21:55.702Z,103218.84
2023-02-13T04:24:22.046Z,103228.41
2023-02-13T04:26:48.369Z,103217.66
2023-02-13T04:29:14.712Z,103219.16
2023-02-13T04:31:41.156Z,103216.28
2023-02-13T04:34:07.546Z,103206.13
2023-02-13T04:36:33.859Z,103206.13
2023-02-13T04:39:00.182Z,103206.91
2023-02-13T04:41:26.531Z,103203.84
2023-02-13T04:43:52.932Z,103200.38
2023-02-13T04:46:19.369Z,103202.50
2023-02-13T04:48:45.900Z,103194.63
2023-02-13T04:51:12.336Z,103198.88
2023-02-13T04:53:38.641Z,103204.78
2023-02-13T04:56:05.014Z,103202.69
2023-02-13T04:58:31.330Z,103198.44
2023-02-13T05:00:57.938Z,103195.56
2023-02-13T05:03:24.468Z,103193.44
2023-02-13T05:05:50.810Z,103199.97
2023-02-13T05:08:17.129Z,103204.94
2023-02-13T05:10:43.454Z,103206.50
2023-02-13T05:13:09.780Z,103205.75
2023-02-13T05:15:36.164Z,103205.56
2023-02-13T05:18:02.519Z,103213.59
2023-02-13T05:20:28.842Z,103209.94
2023-02-13T05:23:13.647Z,103207.66
2023-02-13T05:25:40.350Z,103204.94
2023-02-13T05:28:26.690Z,103206.50
2023-02-13T05:30:53.136Z,103212.25
2023-02-13T05:33:19.514Z,103218.16
2023-02-13T05:35:45.842Z,103212.41
2023-02-13T05:38:12.170Z,103221.06
2023-02-13T05:40:38.505Z,103217.56
2023-02-13T05:43:04.834Z,103214.69
2023-02-13T05:45:31.176Z,103213.94
2023-02-13T05:47:57.509Z,103210.31
2023-02-13T05:50:23.847Z,103203.78
2023-02-13T05:52:50.164Z,103211.06
2023-02-13T05:55:16.540Z,103216.06
2023-02-13T05:57:42.853Z,103227.56
2023-02-13T06:00:09.331Z,103216.81
2023-02-13T06:02:35.689Z,103226.81
2023-02-13T06:05:02.054Z,103225.63
2023-02-13T06:07:28.367Z,103232.88
2023-02-13T06:09:54.739Z,103237.28
2023-02-13T06:12:21.051Z,103243.16
2023-02-13T06:14:47.413Z,103232.47
2023-02-13T06:17:13.772Z,103236.19
2023-02-13T06:19:40.108Z,103239.47
2023-02-13T06:22:06.516Z,103235.94
2023-02-13T06:24:32.853Z,103242.44
2023-02-13T06:26:59.178Z,103231.38
2023-02-13T06:29:25.503Z,103241.31
2023-02-13T06:31:57.658Z,103242.25
2023-02-13T06:34:24.019Z,103238.00
2023-02-13T06:36:50.820Z,103242.81
2023-02-13T06:39:17.152Z,103237.81
2023-02-13T06:41:43.491Z,103243.09
2023-02-13T06:44:09.854Z,103247.31
2023-02-13T06:46:36.304Z,103247.47
2023-02-13T06:49:02.688Z,103246.47
2023-02-13T06:51:29.008Z,103245.69
2023-02-13T06:53:55.329Z,103254.91
2023-02-13T06:56:21.780Z,103257.63
2023-02-13T06:58:48.083Z,103254.91
2023-02-13T07:01:14.440Z,103255.34
2023-02-13T07:03:40.796Z,103260.50
2023-02-13T07:06:07.111Z,103257.63
2023-02-13T07:08:33.418Z,103266.09
2023-02-13T07:10:59.882Z,103261.88
2023-02-13T07:13:26.241Z,103268.38
2023-02-13T07:15:52.667Z,103269.22
2023-02-13T07:18:19.012Z,103262.28
2023-02-13T07:20:45.352Z,103264.94
2023-02-13T07:23:11.688Z,103262.38
2023-02-13T07:25:38.020Z,103262.66
2023-02-13T07:28:04.772Z,103274.22
2023-02-13T07:30:31.662Z,103263.97
2023-02-13T07:32:59.176Z,103276.28
2023-02-13T07:35:25.524Z,103276.81
2023-02-13T07:37:52.997Z,103280.22
2023-02-13T07:40:19.328Z,103277.03
2023-02-13T07:42:45.665Z,103283.31
2023-02-13T07:45:12.082Z,103286.34
2023-02-13T07:47:38.411Z,103284.66
2023-02-13T07:50:06.102Z,103282.81
2023-02-13T07:52:33.206Z,103280.22
2023-02-13T07:54:59.547Z,103281.94
2023-02-13T07:57:25.880Z,103284.38
2023-02-13T07:59:52.370Z,103279.22
2023-02-13T08:02:18.722Z,103288.19
2023-02-13T08:04:47.738Z,103294.13
2023-02-13T08:07:14.645Z,103280.75
2023-02-13T08:09:59.743Z,103292.38
2023-02-13T08:12:26.096Z,103288.66
2023-02-13T08:14:53.117Z,103292.66
2023-02-13T08:17:19.440Z,103282.81
2023-02-13T08:19:45.820Z,103288.00
2023-02-13T08:22:12.151Z,103296.03
2023-02-13T08:24:38.471Z,103297.72
2023-02-13T08:27:04.805Z,103298.31
2023-02-13T08:29:31.119Z,103292.72
2023-02-13T08:31:57.544Z,103294.09
2023-02-13T08:34:23.901Z,103296.81
2023-02-13T08:36:50.233Z,103292.56
2023-02-13T08:39:16.550Z,103291.03
2023-02-13T08:41:43.470Z,103296.81
2023-02-13T08:44:10.108Z,103295.44
2023-02-13T08:46:36.456Z,103291.03
2023-02-13T08:49:02.804Z,103297.38
2023-02-13T08:51:29.168Z,103293.75
2023-02-13T08:53:55.516Z,103287.81
2023-02-13T08:56:21.845Z,103287.72
2023-02-13T08:58:48.603Z,103297.97
2023-02-13T09:01:14.987Z,103291.00
2023-02-13T09:03:41.371Z,103297.69
2023-02-13T09:06:07.734Z,103295.50
2023-02-13T09:08:37.086Z,103290.75
2023-02-13T09:11:03.856Z,103298.16
2023-02-13T09:13:30.374Z,103287.81
2023-02-13T09:16:00.386Z,103292.56
2023-02-13T09:18:27.096Z,103296.53
2023-02-13T09:21:03.346Z,103296.47
2023-02-13T09:23:32.868Z,103298.66
2023-02-13T09:26:00.367Z,103296.34
2023-02-13T09:28:26.773Z,103296.84
2023-02-13T09:30:53.275Z,103304.66
2023-02-13T09:33:19.771Z,103307.59
2023-02-13T09:35:46.167Z,103303.78
2023-02-13T09:38:12.730Z,103306.44
2023-02-13T09:40:44.952Z,103313.03
2023-02-13T09:43:13.199Z,103309.31
2023-02-13T09:45:39.526Z,103318.03
2023-02-13T09:48:05.905Z,103315.69
2023-02-13T09:50:33.379Z,103311.19
2023-02-13T09:52:59.757Z,103309.25
2023-02-13T09:55:32.019Z,103319.78
2023-02-13T09:58:10.457Z,103312.63
2023-02-13T10:00:40.404Z,103309.00
2023-02-13T10:03:21.424Z,103312.91
2023-02-13T10:05:50.143Z,103307.31
2023-02-13T10:08:19.460Z,103317.63
2023-02-13T10:10:52.915Z,103311.13
2023-02-13T10:13:19.183Z,103305.75
2023-02-13T10:15:49.710Z,103310.16
2023-02-13T10:18:16.844Z,103308.97
2023-02-13T10:20:47.670Z,103306.09
2023-02-13T10:23:22.291Z,103306.16
2023-02-13T10:25:57.396Z,103313.28
2023-02-13T10:28:30.089Z,103311.16
2023-02-13T10:30:56.895Z,103310.72
2023-02-13T10:33:25.736Z,103305.41
2023-02-13T10:35:54.570Z,103299.47
2023-02-13T10:38:21.455Z,103303.69
2023-02-13T10:40:50.693Z,103290.53
2023-02-13T10:43:18.281Z,103294.34
2023-02-13T10:45:49.159Z,103296.09
2023-02-13T10:56:26.024Z,103294.22
2023-02-13T10:59:02.265Z,103288.34
2023-02-13T11:01:33.264Z,103288.19
2023-02-13T11:04:07.516Z,103281.81
2023-02-13T11:06:35.262Z,103281.81
2023-02-13T11:09:01.588Z,103288.06
2023-02-13T11:11:28.435Z,103283.25
2023-02-13T11:14:07.290Z,103288.56
2023-02-13T11:17:02.895Z,103285.84
2023-02-13T11:19:47.821Z,103281.28
2023-02-13T11:22:15.021Z,103276.41
2023-02-13T11:24:50.882Z,103277.66
2023-02-13T11:27:17.213Z,103269.63
2023-02-13T11:29:56.875Z,103269.63
2023-02-13T11:32:23.914Z,103269.81
2023-02-13T11:34:51.112Z,103266.41
2023-02-13T11:37:18.775Z,103269.09
2023-02-13T11:39:45.460Z,103264.84
2023-02-13T11:42:15.580Z,103266.03
2023-02-13T11:44:42.123Z,103257.38
2023-02-13T11:47:08.481Z,103255.25
2023-02-13T11:49:35.844Z,103253.81
2023-02-13T11:52:06.196Z,103248.22
2023-02-13T11:54:36.717Z,103232.44
2023-02-13T11:57:23.491Z,103240.94
2023-02-13T11:59:50.591Z,103247.88
2023-02-13T12:02:18.022Z,103250.59
2023-02-13T12:04:44.421Z,103247.88
2023-02-13T12:07:37.052Z,103248.50
2023-02-13T12:10:06.177Z,103234.84
2023-02-13T12:12:34.038Z,103245.91
2023-02-13T12:15:01.295Z,103230.59
2023-02-13T12:17:31.871Z,103240.78
2023-02-13T12:19:58.828Z,103236.78
2023-02-13T12:22:51.303Z,103238.59
2023-02-13T12:25:26.363Z,103235.63
2023-02-13T12:28:11.183Z,103232.03
2023-02-13T12:30:44.589Z,103235.72
2023-02-13T12:33:34.053Z,103230.16
2023-02-13T12:36:12.518Z,103233.78
2023-02-13T12:38:52.532Z,103234.84
2023-02-13T12:41:19.968Z,103233.31
2023-02-13T12:43:49.411Z,103235.44
2023-02-13T12:46:34.537Z,103240.63
2023-02-13T12:49:04.581Z,103239.44
2023-02-13T12:51:31.660Z,103242.47
2023-02-13T12:54:04.916Z,103251.91
2023-02-13T12:56:52.401Z,103249.31
2023-02-13T12:59:29.205Z,103252.34
2023-02-13T13:02:00.448Z,103249.31
2023-02-13T13:04:36.681Z,103252.34
2023-02-13T13:07:18.202Z,103250.53
2023-02-13T13:09:59.854Z,103261.00
2023-02-13T13:12:34.957Z,103254.03
2023-02-13T13:15:05.472Z,103246.16
2023-02-13T13:17:35.094Z,103247.06
2023-02-13T13:20:15.940Z,103234.13
2023-02-13T13:22:44.218Z,103228.50
2023-02-13T13:25:12.848Z,103231.97
2023-02-13T13:27:44.240Z,103237.59
2023-02-13T13:30:29.794Z,103229.66
2023-02-13T13:33:02.868Z,103235.63
2023-02-13T13:35:29.190Z,103235.34
2023-02-13T13:38:06.425Z,103233.22
2023-02-13T13:40:59.483Z,103236.72
2023-02-13T13:43:41.300Z,103225.03
2023-02-13T13:46:10.602Z,103228.31
2023-02-13T13:48:43.600Z,103237.09
2023-02-13T13:51:10.003Z,103228.75
2023-02-13T13:53:38.325Z,103227.09
2023-02-13T13:56:05.818Z,103238.31
2023-02-13T13:58:36.212Z,103237.03
2023-02-13T14:01:14.540Z,103223.06
2023-02-13T14:03:42.090Z,103224.25
2023-02-13T14:06:09.472Z,103224.25
2023-02-13T14:08:41.842Z,103227.75
2023-02-13T14:11:24.936Z,103224.88
2023-02-13T14:13:51.273Z,103223.34
2023-02-13T14:16:36.100Z,103212.44
2023-02-13T14:19:02.423Z,103206.34
2023-02-13T14:21:28.777Z,103213.81
2023-02-13T14:23:57.271Z,103209.78
2023-02-13T14:26:37.094Z,103207.41
2023-02-13T14:29:22.618Z,103206.66
2023-02-13T14:32:05.503Z,103201.19
2023-02-13T14:34:32.769Z,103206.34
2023-02-13T14:37:05.124Z,103201.34
2023-02-13T14:39:32.166Z,103188.28
2023-02-13T14:41:59.272Z,103186.94
2023-02-13T14:44:32.632Z,103178.41
2023-02-13T14:47:00.302Z,103184.63
2023-02-13T14:49:30.344Z,103178.88
2023-02-13T14:51:57.393Z,103172.63
2023-02-13T14:54:26.281Z,103186.47
2023-02-13T14:56:53.319Z,103180.38
2023-02-13T14:59:22.839Z,103180.44
2023-02-13T15:02:09.271Z,103183.75
2023-02-13T15:04:38.762Z,103183.00
2023-02-13T15:07:05.130Z,103187.13
2023-02-13T15:09:32.966Z,103182.69
2023-02-13T15:11:59.569Z,103174.81
2023-02-13T15:14:33.311Z,103176.63
2023-02-13T15:17:02.013Z,103178.75
2023-02-13T15:19:28.457Z,103180.44
2023-02-13T15:21:55.957Z,103176.44
2023-02-13T15:24:25.217Z,103183.75
2023-02-13T15:26:58.896Z,103183.75
2023-02-13T15:29:32.945Z,103177.84
2023-02-13T15:32:17.263Z,103176.63
2023-02-13T15:34:45.921Z,103170.41
2023-02-13T15:37:20.085Z,103168.72
2023-02-13T15:39:46.433Z,103163.13
2023-02-13T15:42:13.062Z,103148.69
2023-02-13T15:44:39.764Z,103153.38
2023-02-13T15:47:07.499Z,103156.38
2023-02-13T15:49:39.979Z,103158.75
2023-02-13T15:52:13.448Z,103142.06
2023-02-13T15:54:46.774Z,103142.34
2023-02-13T15:57:13.168Z,103136.28
2023-02-13T15:59:39.597Z,103146.81
2023-02-13T16:02:06.750Z,103140.91
2023-02-13T16:04:33.124Z,103145.47
2023-02-13T16:06:59.642Z,103147.56
2023-02-13T16:09:31.841Z,103144.00
2023-02-13T16:12:16.556Z,103142.66
2023-02-13T16:14:44.825Z,103148.09
2023-02-13T16:17:16.852Z,103137.78
2023-02-13T16:19:59.902Z,103146.00
2023-02-13T16:22:28.434Z,103144.50
2023-02-13T16:24:55.704Z,103137.34
2023-02-13T16:27:23.773Z,103144.34
2023-02-13T16:29:55.436Z,103149.38
2023-02-13T16:32:26.709Z,103154.53
2023-02-13T16:34:53.062Z,103160.16
2023-02-13T16:37:26.744Z,103165.66
2023-02-13T16:39:53.090Z,103169.19
2023-02-13T16:42:19.540Z,103161.72
2023-02-13T16:44:45.904Z,103158.84
2023-02-13T16:47:24.408Z,103155.19
2023-02-13T16:49:52.244Z,103159.41
2023-02-13T16:52:18.972Z,103165.19
2023-02-13T16:54:48.355Z,103162.31
2023-02-13T16:57:14.610Z,103162.16
2023-02-13T16:59:49.341Z,103165.66
2023-02-13T17:02:25.408Z,103172.94
2023-02-13T17:04:52.915Z,103170.97
2023-02-13T17:07:29.207Z,103176.28
2023-02-13T17:09:56.460Z,103162.31
2023-02-13T17:12:22.796Z,103167.78
2023-02-13T17:14:49.123Z,103152.00
2023-02-13T17:17:17.169Z,103157.91
2023-02-13T17:19:43.497Z,103167.91
2023-02-13T17:22:16.537Z,103170.97
2023-02-13T17:24:42.933Z,103168.84
2023-02-13T17:27:09.574Z,103169.78
2023-02-13T17:29:35.888Z,103178.75
2023-02-13T17:32:02.267Z,103180.88
2023-02-13T17:34:28.635Z,103185.28
2023-02-13T17:36:54.955Z,103186.22
2023-02-13T17:39:21.266Z,103184.66
2023-02-13T17:41:47.614Z,103178.91
2023-02-13T17:44:13.988Z,103186.38
2023-02-13T17:46:40.350Z,103179.97
2023-02-13T17:49:06.715Z,103180.28
2023-02-13T17:51:33.033Z,103185.59
2023-02-13T17:53:59.355Z,103176.78
2023-02-13T17:56:25.682Z,103183.41
2023-02-13T17:58:51.993Z,103187.13
2023-02-13T18:01:18.378Z,103193.03
2023-02-13T18:03:44.730Z,103186.78
2023-02-13T18:06:11.724Z,103190.78
2023-02-13T18:08:38.061Z,103187.28
2023-02-13T18:11:09.256Z,103194.22
2023-02-13T18:13:35.589Z,103184.78
2023-02-13T18:16:06.908Z,103183.94
2023-02-13T18:18:33.260Z,103187.63
2023-02-13T18:20:59.808Z,103195.69
2023-02-13T18:23:26.348Z,103187.34
2023-02-13T18:25:52.742Z,103188.13
2023-02-13T18:28:19.077Z,103179.03
2023-02-13T18:30:45.478Z,103183.88
2023-02-13T18:33:11.914Z,103195.56
2023-02-13T18:35:38.241Z,103192.72
2023-02-13T18:38:04.568Z,103191.03
2023-02-13T18:40:30.882Z,103198.53
2023-02-13T18:42:57.356Z,103195.31
2023-02-13T18:45:23.680Z,103185.16
2023-02-13T18:47:50.076Z,103191.94
2023-02-13T18:50:16.429Z,103185.09
2023-02-13T18:52:42.811Z,103185.50
2023-02-13T18:55:09.360Z,103188.13
2023-02-13T18:57:35.712Z,103180.84
2023-02-13T19:00:02.448Z,103181.66
2023-02-13T19:02:30.297Z,103183.16
2023-02-13T19:04:56.703Z,103182.91
2023-02-13T19:07:23.028Z,103179.03
2023-02-13T19:09:49.424Z,103173.13
2023-02-13T19:12:15.790Z,103174.50
2023-02-13T19:14:42.181Z,103179.91
2023-02-13T19:17:09.302Z,103184.50
2023-02-13T19:19:35.763Z,103182.47
2023-02-13T19:22:02.163Z,103181.63
2023-02-13T19:24:28.485Z,103174.34
2023-02-13T19:26:54.807Z,103168.84
2023-02-13T19:29:21.125Z,103173.25
2023-02-13T19:31:47.524Z,103174.00
2023-02-13T19:34:13.990Z,103182.97
2023-02-13T19:36:40.323Z,103186.69
2023-02-13T19:39:08.879Z,103189.75
2023-02-13T19:41:35.953Z,103191.81
2023-02-13T19:44:02.320Z,103193.25
2023-02-13T19:46:29.270Z,103198.56
2023-02-13T19:48:55.640Z,103204.50
2023-02-13T19:51:24.069Z,103196.59
2023-02-13T19:53:54.769Z,103195.84
2023-02-13T19:56:21.089Z,103192.22
2023-02-13T19:58:47.420Z,103200.09
2023-02-13T20:01:16.031Z,103202.81
2023-02-13T20:03:42.396Z,103201.25
2023-02-13T20:06:09.748Z,103209.91
2023-02-13T20:08:36.082Z,103202.63
2023-02-13T20:11:02.412Z,103208.22
2023-02-13T20:13:28.778Z,103210.94
2023-02-13T20:15:55.225Z,103209.41
2023-02-13T20:18:21.684Z,103206.53
2023-02-13T20:20:48.007Z,103206.38
2023-02-13T20:23:16.856Z,103217.28
2023-02-13T20:25:43.275Z,103218.22
2023-02-13T20:28:11.444Z,103212.31
2023-02-13T20:30:44.522Z,103216.69
2023-02-13T20:33:10.921Z,103212.31
2023-02-13T20:35:37.266Z,103212.88
2023-02-13T20:38:03.885Z,103218.63
2023-02-13T20:40:30.220Z,103214.09
2023-02-13T20:42:56.564Z,103220.41
2023-02-13T20:45:23.048Z,103216.75
2023-02-13T20:47:49.676Z,103217.88
2023-02-13T20:50:16.049Z,103225.16
2023-02-13T20:52:42.412Z,103220.75
2023-02-13T20:55:08.768Z,103226.53
2023-02-13T20:57:35.419Z,103234.41
2023-02-13T21:00:02.018Z,103233.03
2023-02-13T21:02:28.371Z,103230.91
2023-02-13T21:04:54.747Z,103234.56
2023-02-13T21:07:21.152Z,103235.16
2023-02-13T21:09:47.490Z,103239.56
2023-02-13T21:12:14.414Z,103235.91
2023-02-13T21:14:41.041Z,103235.91
2023-02-13T21:17:07.386Z,103238.03
2023-02-13T21:19:33.737Z,103237.88
2023-02-13T21:22:11.910Z,103237.88
2023-02-13T21:24:38.673Z,103244.38
2023-02-13T21:27:04.988Z,103239.22
2023-02-13T21:29:31.350Z,103233.44
2023-02-13T21:31:57.718Z,103239.22
2023-02-13T21:34:24.088Z,103229.03
2023-02-13T21:36:50.417Z,103236.31
2023-02-13T21:39:16.756Z,103237.88
2023-02-13T21:41:43.650Z,103238.44
2023-02-13T21:44:10.741Z,103236.31
2023-02-13T21:46:37.213Z,103240.53
2023-02-13T21:49:04.379Z,103234.78
2023-02-13T21:51:31.634Z,103240.53
2023-02-13T21:53:57.994Z,103229.22
2023-02-13T21:56:25.238Z,103234.41
2023-02-13T21:58:51.612Z,103231.53
2023-02-13T22:01:25.811Z,103230.56
2023-02-13T22:03:52.898Z,103230.97
2023-02-13T22:06:19.852Z,103235.97
2023-02-13T22:08:46.269Z,103231.38
2023-02-13T22:11:12.584Z,103248.66
2023-02-13T22:13:41.851Z,103255.78
2023-02-13T22:16:11.913Z,103251.38
2023-02-13T22:18:38.880Z,103257.13
2023-02-13T22:21:08.567Z,103251.97
2023-02-13T22:23:36.717Z,103258.31
2023-02-13T22:26:03.534Z,103253.31
2023-02-13T22:28:29.905Z,103254.06
2023-02-13T22:30:56.355Z,103258.31
2023-02-13T22:33:22.761Z,103257.56
2023-02-13T22:35:49.091Z,103259.50
2023-02-13T22:38:15.408Z,103259.50
2023-02-13T22:40:41.740Z,103262.38
2023-02-13T22:43:08.065Z,103265.28
2023-02-13T22:45:35.027Z,103260.09
2023-02-13T22:48:01.363Z,103260.09
2023-02-13T22:50:27.696Z,103256.47
2023-02-13T22:52:54.023Z,103257.78
2023-02-13T22:55:20.340Z,103272.00
2023-02-13T22:57:47.344Z,103270.66
2023-02-13T23:00:13.947Z,103264.75
2023-02-13T23:02:40.316Z,103270.50
2023-02-13T23:05:06.670Z,103262.22
2023-02-13T23:07:32.993Z,103266.03
2023-02-13T23:09:59.350Z,103261.03
2023-02-13T23:12:39.047Z,103260.09
2023-02-13T23:15:12.178Z,103254.16
2023-02-13T23:17:57.097Z,103253.22
2023-02-13T23:20:23.513Z,103253.06
2023-02-13T23:22:49.842Z,103251.53
2023-02-13T23:25:16.229Z,103260.19
2023-02-13T23:27:42.561Z,103257.31
2023-02-13T23:30:09.112Z,103261.50
2023-02-13T23:32:35.445Z,103255.00
2023-02-13T23:35:01.792Z,103262.69
2023-02-13T23:37:28.125Z,103256.94
2023-02-13T23:39:54.459Z,103260.59
2023-02-13T23:42:20.771Z,103255.41
2023-02-13T23:44:47.126Z,103264.03
2023-02-13T23:47:13.452Z,103259.66
2023-02-13T23:49:39.788Z,103261.03
2023-02-13T23:52:06.123Z,103263.91
2023-02-13T23:54:32.461Z,103269.66
2023-02-13T23:56:58.813Z,103265.97
2023-02-13T23:59:25.176Z,103266.59
